sensor_id;sensor_type;location;lat;lon;timestamp;temperature;humidity
3256;DHT22;1640;48.504;9.224;2022-12-07T00:00:54;4.30;99.90
3256;DHT22;1640;48.504;9.224;2022-12-07T00:03:22;4.30;99.90
3256;DHT22;1640;48.504;9.224;2022-12-07T00:05:49;4.20;99.90
3256;DHT22;1640;48.504;9.224;2022-12-07T00:08:17;4.20;99.90
3256;DHT22;1640;48.504;9.224;2022-12-07T00:10:44;4.20;99.90
3256;DHT22;1640;48.504;9.224;2022-12-07T00:13:11;4.10;99.90
3256;DHT22;1640;48.504;9.224;2022-12-07T00:15:40;4.10;99.90
3256;DHT22;1640;48.504;9.224;2022-12-07T00:18:08;4.00;99.90
3256;DHT22;1640;48.504;9.224;2022-12-07T00:20:35;4.00;99.90
3256;DHT22;1640;48.504;9.224;2022-12-07T00:23:02;4.10;99.90
3256;DHT22;1640;48.504;9.224;2022-12-07T00:25:30;4.10;99.90
3256;DHT22;1640;48.504;9.224;2022-12-07T00:27:57;4.20;99.90
3256;DHT22;1640;48.504;9.224;2022-12-07T00:30:25;4.10;99.90
3256;DHT22;1640;48.504;9.224;2022-12-07T00:32:54;4.10;99.90
3256;DHT22;1640;48.504;9.224;2022-12-07T00:35:21;4.10;99.90
3256;DHT22;1640;48.504;9.224;2022-12-07T00:37:48;4.10;99.90
3256;DHT22;1640;48.504;9.224;2022-12-07T00:40:16;4.00;99.90
3256;DHT22;1640;48.504;9.224;2022-12-07T00:42:43;4.00;99.90
3256;DHT22;1640;48.504;9.224;2022-12-07T00:45:11;4.00;99.90
3256;DHT22;1640;48.504;9.224;2022-12-07T00:47:38;4.00;99.90
3256;DHT22;1640;48.504;9.224;2022-12-07T00:50:08;3.90;99.90
3256;DHT22;1640;48.504;9.224;2022-12-07T00:52:35;4.00;99.90
3256;DHT22;1640;48.504;9.224;2022-12-07T00:55:03;4.00;99.90
3256;DHT22;1640;48.504;9.224;2022-12-07T00:57:31;4.10;99.90
3256;DHT22;1640;48.504;9.224;2022-12-07T00:59:58;4.10;99.90
3256;DHT22;1640;48.504;9.224;2022-12-07T01:02:26;4.10;99.90
3256;DHT22;1640;48.504;9.224;2022-12-07T01:04:54;4.20;99.90
3256;DHT22;1640;48.504;9.224;2022-12-07T01:07:22;4.10;99.90
3256;DHT22;1640;48.504;9.224;2022-12-07T01:09:50;4.10;99.90
3256;DHT22;1640;48.504;9.224;2022-12-07T01:12:17;4.20;99.90
3256;DHT22;1640;48.504;9.224;2022-12-07T01:14:45;4.10;99.90
3256;DHT22;1640;48.504;9.224;2022-12-07T01:17:12;4.10;99.90
3256;DHT22;1640;48.504;9.224;2022-12-07T01:19:40;4.00;99.90
3256;DHT22;1640;48.504;9.224;2022-12-07T01:22:07;3.90;99.90
3256;DHT22;1640;48.504;9.224;2022-12-07T01:24:36;3.90;99.90
3256;DHT22;1640;48.504;9.224;2022-12-07T01:27:03;3.90;99.90
3256;DHT22;1640;48.504;9.224;2022-12-07T01:29:30;3.90;99.90
3256;DHT22;1640;48.504;9.224;2022-12-07T01:31:58;3.80;99.90
3256;DHT22;1640;48.504;9.224;2022-12-07T01:34:25;3.90;99.90
3256;DHT22;1640;48.504;9.224;2022-12-07T01:36:53;3.90;99.90
3256;DHT22;1640;48.504;9.224;2022-12-07T01:39:20;4.00;99.90
3256;DHT22;1640;48.504;9.224;2022-12-07T01:41:49;3.90;99.90
3256;DHT22;1640;48.504;9.224;2022-12-07T01:44:22;3.90;99.90
3256;DHT22;1640;48.504;9.224;2022-12-07T01:46:51;3.90;99.90
3256;DHT22;1640;48.504;9.224;2022-12-07T01:49:26;3.90;99.90
3256;DHT22;1640;48.504;9.224;2022-12-07T01:52:00;3.90;99.90
3256;DHT22;1640;48.504;9.224;2022-12-07T01:54:28;3.90;99.90
3256;DHT22;1640;48.504;9.224;2022-12-07T01:56:58;3.90;99.90
3256;DHT22;1640;48.504;9.224;2022-12-07T01:59:26;3.90;99.90
3256;DHT22;1640;48.504;9.224;2022-12-07T02:01:55;3.90;99.90
3256;DHT22;1640;48.504;9.224;2022-12-07T02:04:23;3.90;99.90
3256;DHT22;1640;48.504;9.224;2022-12-07T02:06:51;3.90;99.90
3256;DHT22;1640;48.504;9.224;2022-12-07T02:09:18;3.90;99.90
3256;DHT22;1640;48.504;9.224;2022-12-07T02:11:46;3.90;99.90
3256;DHT22;1640;48.504;9.224;2022-12-07T02:14:14;3.90;99.90
3256;DHT22;1640;48.504;9.224;2022-12-07T02:16:55;3.90;99.90
3256;DHT22;1640;48.504;9.224;2022-12-07T02:22:51;3.90;99.90
3256;DHT22;1640;48.504;9.224;2022-12-07T02:25:33;3.90;99.90
3256;DHT22;1640;48.504;9.224;2022-12-07T02:28:06;3.90;99.90
3256;DHT22;1640;48.504;9.224;2022-12-07T02:30:40;3.90;99.90
3256;DHT22;1640;48.504;9.224;2022-12-07T02:33:13;3.80;99.90
3256;DHT22;1640;48.504;9.224;2022-12-07T02:35:44;3.90;99.90
3256;DHT22;1640;48.504;9.224;2022-12-07T02:38:16;4.00;99.90
3256;DHT22;1640;48.504;9.224;2022-12-07T02:40:50;4.00;99.90
3256;DHT22;1640;48.504;9.224;2022-12-07T02:43:23;3.90;99.90
3256;DHT22;1640;48.504;9.224;2022-12-07T02:45:55;3.90;99.90
3256;DHT22;1640;48.504;9.224;2022-12-07T02:48:24;4.00;99.90
3256;DHT22;1640;48.504;9.224;2022-12-07T02:50:53;4.00;99.90
3256;DHT22;1640;48.504;9.224;2022-12-07T02:53:31;4.00;99.90
3256;DHT22;1640;48.504;9.224;2022-12-07T02:56:01;4.00;99.90
3256;DHT22;1640;48.504;9.224;2022-12-07T02:58:39;4.00;99.90
3256;DHT22;1640;48.504;9.224;2022-12-07T03:01:18;4.00;99.90
3256;DHT22;1640;48.504;9.224;2022-12-07T03:03:51;4.00;99.90
3256;DHT22;1640;48.504;9.224;2022-12-07T03:06:27;4.00;99.90
3256;DHT22;1640;48.504;9.224;2022-12-07T03:09:06;3.90;99.90
3256;DHT22;1640;48.504;9.224;2022-12-07T03:11:42;4.00;99.90
3256;DHT22;1640;48.504;9.224;2022-12-07T03:14:16;4.00;99.90
3256;DHT22;1640;48.504;9.224;2022-12-07T03:16:52;4.00;99.90
3256;DHT22;1640;48.504;9.224;2022-12-07T03:19:22;3.90;99.90
3256;DHT22;1640;48.504;9.224;2022-12-07T03:21:55;3.90;99.90
3256;DHT22;1640;48.504;9.224;2022-12-07T03:24:27;3.90;99.90
3256;DHT22;1640;48.504;9.224;2022-12-07T03:27:01;3.90;99.90
3256;DHT22;1640;48.504;9.224;2022-12-07T03:29:34;3.90;99.90
3256;DHT22;1640;48.504;9.224;2022-12-07T03:32:08;3.80;99.90
3256;DHT22;1640;48.504;9.224;2022-12-07T03:34:42;3.80;99.90
3256;DHT22;1640;48.504;9.224;2022-12-07T03:37:14;3.80;99.90
3256;DHT22;1640;48.504;9.224;2022-12-07T03:39:47;3.90;99.90
3256;DHT22;1640;48.504;9.224;2022-12-07T03:42:17;3.80;99.90
3256;DHT22;1640;48.504;9.224;2022-12-07T03:44:45;3.90;99.90
3256;DHT22;1640;48.504;9.224;2022-12-07T03:47:20;3.80;99.90
3256;DHT22;1640;48.504;9.224;2022-12-07T03:49:51;3.80;99.90
3256;DHT22;1640;48.504;9.224;2022-12-07T03:52:23;3.80;99.90
3256;DHT22;1640;48.504;9.224;2022-12-07T03:54:55;3.80;99.90
3256;DHT22;1640;48.504;9.224;2022-12-07T03:57:25;3.80;99.90
3256;DHT22;1640;48.504;9.224;2022-12-07T03:59:54;3.80;99.90
3256;DHT22;1640;48.504;9.224;2022-12-07T04:02:25;3.70;99.90
3256;DHT22;1640;48.504;9.224;2022-12-07T04:04:54;3.70;99.90
3256;DHT22;1640;48.504;9.224;2022-12-07T04:07:22;3.70;99.90
3256;DHT22;1640;48.504;9.224;2022-12-07T04:09:49;3.70;99.90
3256;DHT22;1640;48.504;9.224;2022-12-07T04:12:17;3.70;99.90
3256;DHT22;1640;48.504;9.224;2022-12-07T04:14:44;3.80;99.90
3256;DHT22;1640;48.504;9.224;2022-12-07T04:17:11;3.70;99.90
3256;DHT22;1640;48.504;9.224;2022-12-07T04:19:40;3.70;99.90
3256;DHT22;1640;48.504;9.224;2022-12-07T04:22:08;3.70;99.90
3256;DHT22;1640;48.504;9.224;2022-12-07T04:24:35;3.70;99.90
3256;DHT22;1640;48.504;9.224;2022-12-07T04:27:02;3.60;99.90
3256;DHT22;1640;48.504;9.224;2022-12-07T04:29:30;3.60;99.90
3256;DHT22;1640;48.504;9.224;2022-12-07T04:31:57;3.60;99.90
3256;DHT22;1640;48.504;9.224;2022-12-07T04:34:25;3.60;99.90
3256;DHT22;1640;48.504;9.224;2022-12-07T04:36:53;3.60;99.90
3256;DHT22;1640;48.504;9.224;2022-12-07T04:39:23;3.60;99.90
3256;DHT22;1640;48.504;9.224;2022-12-07T04:41:51;3.50;99.90
3256;DHT22;1640;48.504;9.224;2022-12-07T04:44:18;3.40;99.90
3256;DHT22;1640;48.504;9.224;2022-12-07T04:46:46;3.40;99.90
3256;DHT22;1640;48.504;9.224;2022-12-07T04:49:15;3.40;99.90
3256;DHT22;1640;48.504;9.224;2022-12-07T04:51:42;3.40;99.90
3256;DHT22;1640;48.504;9.224;2022-12-07T04:54:12;3.40;99.90
3256;DHT22;1640;48.504;9.224;2022-12-07T04:56:40;3.40;99.90
3256;DHT22;1640;48.504;9.224;2022-12-07T04:59:09;3.40;99.90
3256;DHT22;1640;48.504;9.224;2022-12-07T05:01:36;3.40;99.90
3256;DHT22;1640;48.504;9.224;2022-12-07T05:04:04;3.40;99.90
3256;DHT22;1640;48.504;9.224;2022-12-07T05:06:32;3.40;99.90
3256;DHT22;1640;48.504;9.224;2022-12-07T05:08:59;3.40;99.90
3256;DHT22;1640;48.504;9.224;2022-12-07T05:11:28;3.30;99.90
3256;DHT22;1640;48.504;9.224;2022-12-07T05:14:12;3.30;99.90
3256;DHT22;1640;48.504;9.224;2022-12-07T05:16:40;3.20;99.90
3256;DHT22;1640;48.504;9.224;2022-12-07T05:19:09;3.20;99.90
3256;DHT22;1640;48.504;9.224;2022-12-07T05:21:37;3.10;99.90
3256;DHT22;1640;48.504;9.224;2022-12-07T05:24:06;3.00;99.90
3256;DHT22;1640;48.504;9.224;2022-12-07T05:26:35;2.90;99.90
3256;DHT22;1640;48.504;9.224;2022-12-07T05:29:02;2.90;99.90
3256;DHT22;1640;48.504;9.224;2022-12-07T05:31:30;2.80;99.90
3256;DHT22;1640;48.504;9.224;2022-12-07T05:33:57;2.80;99.90
3256;DHT22;1640;48.504;9.224;2022-12-07T05:36:25;2.70;99.90
3256;DHT22;1640;48.504;9.224;2022-12-07T05:38:54;2.70;99.90
3256;DHT22;1640;48.504;9.224;2022-12-07T05:41:22;2.70;99.90
3256;DHT22;1640;48.504;9.224;2022-12-07T05:44:08;2.60;99.90
3256;DHT22;1640;48.504;9.224;2022-12-07T05:46:35;2.60;99.90
3256;DHT22;1640;48.504;9.224;2022-12-07T05:49:03;2.50;99.90
3256;DHT22;1640;48.504;9.224;2022-12-07T05:51:30;2.40;99.90
3256;DHT22;1640;48.504;9.224;2022-12-07T05:53:58;2.30;99.90
3256;DHT22;1640;48.504;9.224;2022-12-07T05:56:25;2.20;99.90
3256;DHT22;1640;48.504;9.224;2022-12-07T05:58:53;2.10;99.90
3256;DHT22;1640;48.504;9.224;2022-12-07T06:01:39;2.00;99.90
3256;DHT22;1640;48.504;9.224;2022-12-07T06:04:07;1.90;99.90
3256;DHT22;1640;48.504;9.224;2022-12-07T06:06:34;1.80;99.90
3256;DHT22;1640;48.504;9.224;2022-12-07T06:09:02;1.80;99.90
3256;DHT22;1640;48.504;9.224;2022-12-07T06:11:30;1.70;99.90
3256;DHT22;1640;48.504;9.224;2022-12-07T06:14:14;1.70;99.90
3256;DHT22;1640;48.504;9.224;2022-12-07T06:16:43;1.60;99.90
3256;DHT22;1640;48.504;9.224;2022-12-07T06:19:11;1.60;99.90
3256;DHT22;1640;48.504;9.224;2022-12-07T06:21:38;1.50;99.90
3256;DHT22;1640;48.504;9.224;2022-12-07T06:24:06;1.50;99.90
3256;DHT22;1640;48.504;9.224;2022-12-07T06:26:33;1.40;99.90
3256;DHT22;1640;48.504;9.224;2022-12-07T06:29:01;1.30;99.90
3256;DHT22;1640;48.504;9.224;2022-12-07T06:31:28;1.30;99.90
3256;DHT22;1640;48.504;9.224;2022-12-07T06:33:59;1.30;99.90
3256;DHT22;1640;48.504;9.224;2022-12-07T06:36:26;1.30;99.90
3256;DHT22;1640;48.504;9.224;2022-12-07T06:38:54;1.30;99.90
3256;DHT22;1640;48.504;9.224;2022-12-07T06:41:22;1.20;99.90
3256;DHT22;1640;48.504;9.224;2022-12-07T06:43:50;1.20;99.90
3256;DHT22;1640;48.504;9.224;2022-12-07T06:46:18;1.10;99.90
3256;DHT22;1640;48.504;9.224;2022-12-07T06:48:45;1.10;99.90
3256;DHT22;1640;48.504;9.224;2022-12-07T06:51:14;1.10;99.90
3256;DHT22;1640;48.504;9.224;2022-12-07T06:53:42;1.10;99.90
3256;DHT22;1640;48.504;9.224;2022-12-07T06:56:09;1.10;99.90
3256;DHT22;1640;48.504;9.224;2022-12-07T06:58:37;1.20;99.90
3256;DHT22;1640;48.504;9.224;2022-12-07T07:01:09;1.20;99.90
3256;DHT22;1640;48.504;9.224;2022-12-07T07:03:36;1.30;99.90
3256;DHT22;1640;48.504;9.224;2022-12-07T07:06:04;1.30;99.90
3256;DHT22;1640;48.504;9.224;2022-12-07T07:08:33;1.40;99.90
3256;DHT22;1640;48.504;9.224;2022-12-07T07:11:01;1.40;99.90
3256;DHT22;1640;48.504;9.224;2022-12-07T07:13:29;1.40;99.90
3256;DHT22;1640;48.504;9.224;2022-12-07T07:15:56;1.30;99.90
3256;DHT22;1640;48.504;9.224;2022-12-07T07:18:24;1.30;99.90
3256;DHT22;1640;48.504;9.224;2022-12-07T07:20:52;1.30;99.90
3256;DHT22;1640;48.504;9.224;2022-12-07T07:23:21;1.40;99.90
3256;DHT22;1640;48.504;9.224;2022-12-07T07:25:50;1.50;99.90
3256;DHT22;1640;48.504;9.224;2022-12-07T07:28:17;1.50;99.90
3256;DHT22;1640;48.504;9.224;2022-12-07T07:30:45;1.70;99.90
3256;DHT22;1640;48.504;9.224;2022-12-07T07:33:12;1.70;99.90
3256;DHT22;1640;48.504;9.224;2022-12-07T07:35:40;1.80;99.90
3256;DHT22;1640;48.504;9.224;2022-12-07T07:38:08;1.80;99.90
3256;DHT22;1640;48.504;9.224;2022-12-07T07:40:36;1.90;99.90
3256;DHT22;1640;48.504;9.224;2022-12-07T07:43:05;1.90;99.90
3256;DHT22;1640;48.504;9.224;2022-12-07T07:45:32;2.00;99.90
3256;DHT22;1640;48.504;9.224;2022-12-07T07:48:00;2.00;99.90
3256;DHT22;1640;48.504;9.224;2022-12-07T07:50:27;2.00;99.90
3256;DHT22;1640;48.504;9.224;2022-12-07T07:52:56;2.00;99.90
3256;DHT22;1640;48.504;9.224;2022-12-07T07:55:24;1.90;99.90
3256;DHT22;1640;48.504;9.224;2022-12-07T07:57:51;1.90;99.90
3256;DHT22;1640;48.504;9.224;2022-12-07T08:00:21;1.90;99.90
3256;DHT22;1640;48.504;9.224;2022-12-07T08:02:48;2.00;99.90
3256;DHT22;1640;48.504;9.224;2022-12-07T08:05:16;2.10;99.90
3256;DHT22;1640;48.504;9.224;2022-12-07T08:07:44;2.30;99.90
3256;DHT22;1640;48.504;9.224;2022-12-07T08:10:13;2.40;99.90
3256;DHT22;1640;48.504;9.224;2022-12-07T08:12:42;2.50;99.90
3256;DHT22;1640;48.504;9.224;2022-12-07T08:15:26;2.60;99.90
3256;DHT22;1640;48.504;9.224;2022-12-07T08:17:54;2.60;99.90
3256;DHT22;1640;48.504;9.224;2022-12-07T08:20:22;2.70;99.90
3256;DHT22;1640;48.504;9.224;2022-12-07T08:22:49;2.80;99.90
3256;DHT22;1640;48.504;9.224;2022-12-07T08:25:17;2.80;99.90
3256;DHT22;1640;48.504;9.224;2022-12-07T08:27:45;2.80;99.90
3256;DHT22;1640;48.504;9.224;2022-12-07T08:30:12;2.90;99.90
3256;DHT22;1640;48.504;9.224;2022-12-07T08:32:41;2.90;99.90
3256;DHT22;1640;48.504;9.224;2022-12-07T08:35:09;3.00;99.90
3256;DHT22;1640;48.504;9.224;2022-12-07T08:37:37;3.10;99.90
3256;DHT22;1640;48.504;9.224;2022-12-07T08:40:05;3.20;99.90
3256;DHT22;1640;48.504;9.224;2022-12-07T08:42:33;3.30;99.90
3256;DHT22;1640;48.504;9.224;2022-12-07T08:45:07;3.40;99.90
3256;DHT22;1640;48.504;9.224;2022-12-07T08:47:38;3.40;99.90
3256;DHT22;1640;48.504;9.224;2022-12-07T08:50:10;3.50;99.90
3256;DHT22;1640;48.504;9.224;2022-12-07T08:52:39;3.60;99.90
3256;DHT22;1640;48.504;9.224;2022-12-07T08:55:09;3.70;99.90
3256;DHT22;1640;48.504;9.224;2022-12-07T08:57:38;3.70;99.90
3256;DHT22;1640;48.504;9.224;2022-12-07T09:00:07;3.80;99.90
3256;DHT22;1640;48.504;9.224;2022-12-07T09:02:35;3.80;99.90
3256;DHT22;1640;48.504;9.224;2022-12-07T09:05:03;3.90;99.90
3256;DHT22;1640;48.504;9.224;2022-12-07T09:07:34;4.00;99.90
3256;DHT22;1640;48.504;9.224;2022-12-07T09:10:01;4.20;7.90
3256;DHT22;1640;48.504;9.224;2022-12-07T09:12:29;4.30;13.60
3256;DHT22;1640;48.504;9.224;2022-12-07T09:14:56;4.20;22.50
3256;DHT22;1640;48.504;9.224;2022-12-07T09:17:23;4.20;18.40
3256;DHT22;1640;48.504;9.224;2022-12-07T09:19:51;4.20;19.80
3256;DHT22;1640;48.504;9.224;2022-12-07T09:22:18;4.10;24.00
3256;DHT22;1640;48.504;9.224;2022-12-07T09:24:47;4.00;15.50
3256;DHT22;1640;48.504;9.224;2022-12-07T09:27:15;4.10;19.30
3256;DHT22;1640;48.504;9.224;2022-12-07T09:29:43;4.20;19.80
3256;DHT22;1640;48.504;9.224;2022-12-07T09:32:11;4.30;28.60
3256;DHT22;1640;48.504;9.224;2022-12-07T09:34:39;4.30;29.90
3256;DHT22;1640;48.504;9.224;2022-12-07T09:37:06;4.40;40.40
3256;DHT22;1640;48.504;9.224;2022-12-07T09:39:34;4.30;40.20
3256;DHT22;1640;48.504;9.224;2022-12-07T09:42:05;4.40;40.30
3256;DHT22;1640;48.504;9.224;2022-12-07T09:44:34;4.50;35.30
3256;DHT22;1640;48.504;9.224;2022-12-07T09:47:02;4.50;42.10
3256;DHT22;1640;48.504;9.224;2022-12-07T09:49:31;4.50;43.80
3256;DHT22;1640;48.504;9.224;2022-12-07T09:52:04;4.40;39.40
3256;DHT22;1640;48.504;9.224;2022-12-07T09:54:46;4.60;35.40
3256;DHT22;1640;48.504;9.224;2022-12-07T09:57:15;4.70;39.90
3256;DHT22;1640;48.504;9.224;2022-12-07T09:59:42;4.70;41.80
3256;DHT22;1640;48.504;9.224;2022-12-07T10:02:28;4.70;39.90
3256;DHT22;1640;48.504;9.224;2022-12-07T10:05:00;4.60;49.50
3256;DHT22;1640;48.504;9.224;2022-12-07T10:07:28;4.60;49.40
3256;DHT22;1640;48.504;9.224;2022-12-07T10:09:56;4.60;46.40
3256;DHT22;1640;48.504;9.224;2022-12-07T10:12:25;4.60;49.00
3256;DHT22;1640;48.504;9.224;2022-12-07T10:14:55;4.70;50.60
3256;DHT22;1640;48.504;9.224;2022-12-07T10:17:29;4.80;61.00
3256;DHT22;1640;48.504;9.224;2022-12-07T10:20:16;4.90;62.00
3256;DHT22;1640;48.504;9.224;2022-12-07T10:22:55;4.70;57.80
3256;DHT22;1640;48.504;9.224;2022-12-07T10:25:26;4.90;58.80
3256;DHT22;1640;48.504;9.224;2022-12-07T10:28:00;5.00;63.30
3256;DHT22;1640;48.504;9.224;2022-12-07T10:30:28;5.00;64.70
3256;DHT22;1640;48.504;9.224;2022-12-07T10:32:55;5.10;66.50
3256;DHT22;1640;48.504;9.224;2022-12-07T10:35:25;5.30;70.30
3256;DHT22;1640;48.504;9.224;2022-12-07T10:37:54;5.30;70.80
3256;DHT22;1640;48.504;9.224;2022-12-07T10:40:31;5.40;76.70
3256;DHT22;1640;48.504;9.224;2022-12-07T10:43:03;5.40;80.40
3256;DHT22;1640;48.504;9.224;2022-12-07T10:45:31;5.50;80.70
3256;DHT22;1640;48.504;9.224;2022-12-07T10:48:04;5.40;80.20
3256;DHT22;1640;48.504;9.224;2022-12-07T10:50:56;5.30;78.10
3256;DHT22;1640;48.504;9.224;2022-12-07T10:53:34;5.40;78.70
3256;DHT22;1640;48.504;9.224;2022-12-07T10:56:14;5.40;79.70
3256;DHT22;1640;48.504;9.224;2022-12-07T10:58:57;5.40;78.80
3256;DHT22;1640;48.504;9.224;2022-12-07T11:01:31;5.50;77.90
3256;DHT22;1640;48.504;9.224;2022-12-07T11:04:22;5.50;78.10
3256;DHT22;1640;48.504;9.224;2022-12-07T11:06:57;5.60;79.10
3256;DHT22;1640;48.504;9.224;2022-12-07T11:09:38;5.60;79.70
3256;DHT22;1640;48.504;9.224;2022-12-07T11:12:13;5.60;79.40
3256;DHT22;1640;48.504;9.224;2022-12-07T11:14:52;5.70;79.50
3256;DHT22;1640;48.504;9.224;2022-12-07T11:17:28;5.90;79.50
3256;DHT22;1640;48.504;9.224;2022-12-07T11:20:05;6.10;80.70
3256;DHT22;1640;48.504;9.224;2022-12-07T11:22:45;6.00;81.10
3256;DHT22;1640;48.504;9.224;2022-12-07T11:25:22;6.00;80.40
3256;DHT22;1640;48.504;9.224;2022-12-07T11:28:04;6.20;80.40
3256;DHT22;1640;48.504;9.224;2022-12-07T11:30:41;6.30;80.80
3256;DHT22;1640;48.504;9.224;2022-12-07T11:33:15;6.40;80.70
3256;DHT22;1640;48.504;9.224;2022-12-07T11:35:52;6.30;81.00
3256;DHT22;1640;48.504;9.224;2022-12-07T11:38:26;6.30;81.00
3256;DHT22;1640;48.504;9.224;2022-12-07T11:40:59;6.20;81.70
3256;DHT22;1640;48.504;9.224;2022-12-07T11:43:50;6.20;81.00
3256;DHT22;1640;48.504;9.224;2022-12-07T11:46:21;6.20;81.10
3256;DHT22;1640;48.504;9.224;2022-12-07T11:48:57;6.30;80.80
3256;DHT22;1640;48.504;9.224;2022-12-07T11:51:25;6.20;80.70
3256;DHT22;1640;48.504;9.224;2022-12-07T11:53:56;6.20;81.10
3256;DHT22;1640;48.504;9.224;2022-12-07T11:56:27;6.30;80.10
3256;DHT22;1640;48.504;9.224;2022-12-07T11:58:59;6.40;80.50
3256;DHT22;1640;48.504;9.224;2022-12-07T12:01:39;6.40;80.80
3256;DHT22;1640;48.504;9.224;2022-12-07T12:04:21;6.50;81.00
3256;DHT22;1640;48.504;9.224;2022-12-07T12:06:50;6.50;80.80
3256;DHT22;1640;48.504;9.224;2022-12-07T12:09:23;6.50;80.50
3256;DHT22;1640;48.504;9.224;2022-12-07T12:12:17;6.60;81.10
3256;DHT22;1640;48.504;9.224;2022-12-07T12:14:57;6.60;80.70
3256;DHT22;1640;48.504;9.224;2022-12-07T12:17:45;6.70;81.10
3256;DHT22;1640;48.504;9.224;2022-12-07T12:20:22;6.90;81.20
3256;DHT22;1640;48.504;9.224;2022-12-07T12:22:53;6.70;81.10
3256;DHT22;1640;48.504;9.224;2022-12-07T12:25:24;6.40;81.10
3256;DHT22;1640;48.504;9.224;2022-12-07T12:27:55;6.30;81.70
3256;DHT22;1640;48.504;9.224;2022-12-07T12:30:31;6.30;81.00
3256;DHT22;1640;48.504;9.224;2022-12-07T12:33:14;6.20;81.10
3256;DHT22;1640;48.504;9.224;2022-12-07T12:35:43;6.10;80.50
3256;DHT22;1640;48.504;9.224;2022-12-07T12:38:29;6.10;80.80
3256;DHT22;1640;48.504;9.224;2022-12-07T12:40:57;6.20;81.10
3256;DHT22;1640;48.504;9.224;2022-12-07T12:43:48;6.30;81.10
3256;DHT22;1640;48.504;9.224;2022-12-07T12:46:47;6.20;80.70
3256;DHT22;1640;48.504;9.224;2022-12-07T12:49:37;6.30;80.80
3256;DHT22;1640;48.504;9.224;2022-12-07T13:01:45;6.40;81.20
3256;DHT22;1640;48.504;9.224;2022-12-07T13:04:50;6.20;80.40
3256;DHT22;1640;48.504;9.224;2022-12-07T13:10:38;6.10;80.10
3256;DHT22;1640;48.504;9.224;2022-12-07T13:13:33;6.00;79.50
3256;DHT22;1640;48.504;9.224;2022-12-07T13:22:49;6.20;80.40
3256;DHT22;1640;48.504;9.224;2022-12-07T13:25:29;6.20;79.70
3256;DHT22;1640;48.504;9.224;2022-12-07T13:28:00;6.30;80.00
3256;DHT22;1640;48.504;9.224;2022-12-07T13:30:29;6.30;80.00
3256;DHT22;1640;48.504;9.224;2022-12-07T13:32:58;6.20;79.40
3256;DHT22;1640;48.504;9.224;2022-12-07T13:35:31;6.30;80.10
3256;DHT22;1640;48.504;9.224;2022-12-07T13:38:02;6.40;80.70
3256;DHT22;1640;48.504;9.224;2022-12-07T13:40:31;6.20;80.00
3256;DHT22;1640;48.504;9.224;2022-12-07T13:42:59;6.10;79.40
3256;DHT22;1640;48.504;9.224;2022-12-07T13:45:29;6.10;79.10
3256;DHT22;1640;48.504;9.224;2022-12-07T13:48:16;6.10;79.40
3256;DHT22;1640;48.504;9.224;2022-12-07T13:50:53;6.10;79.10
3256;DHT22;1640;48.504;9.224;2022-12-07T13:53:22;6.20;79.40
3256;DHT22;1640;48.504;9.224;2022-12-07T13:55:49;6.10;78.90
3256;DHT22;1640;48.504;9.224;2022-12-07T13:58:17;6.00;78.40
3256;DHT22;1640;48.504;9.224;2022-12-07T14:00:45;6.00;78.40
3256;DHT22;1640;48.504;9.224;2022-12-07T14:03:30;6.10;78.50
3256;DHT22;1640;48.504;9.224;2022-12-07T14:06:15;6.00;77.90
3256;DHT22;1640;48.504;9.224;2022-12-07T14:08:45;6.10;77.70
3256;DHT22;1640;48.504;9.224;2022-12-07T14:11:17;6.00;77.90
3256;DHT22;1640;48.504;9.224;2022-12-07T14:13:56;6.00;77.90
3256;DHT22;1640;48.504;9.224;2022-12-07T14:16:28;5.90;76.80
3256;DHT22;1640;48.504;9.224;2022-12-07T14:18:56;5.90;77.50
3256;DHT22;1640;48.504;9.224;2022-12-07T14:21:25;5.80;76.10
3256;DHT22;1640;48.504;9.224;2022-12-07T14:24:14;5.90;77.10
3256;DHT22;1640;48.504;9.224;2022-12-07T14:26:43;5.70;77.10
3256;DHT22;1640;48.504;9.224;2022-12-07T14:29:27;5.60;73.90
3256;DHT22;1640;48.504;9.224;2022-12-07T14:31:57;5.70;73.90
3256;DHT22;1640;48.504;9.224;2022-12-07T14:34:25;5.70;73.20
3256;DHT22;1640;48.504;9.224;2022-12-07T14:36:53;5.70;74.40
3256;DHT22;1640;48.504;9.224;2022-12-07T14:39:22;5.70;73.90
3256;DHT22;1640;48.504;9.224;2022-12-07T14:41:49;5.70;73.60
3256;DHT22;1640;48.504;9.224;2022-12-07T14:44:21;5.60;71.80
3256;DHT22;1640;48.504;9.224;2022-12-07T14:46:49;5.50;70.80
3256;DHT22;1640;48.504;9.224;2022-12-07T14:49:17;5.50;70.80
3256;DHT22;1640;48.504;9.224;2022-12-07T14:51:46;5.60;70.30
3256;DHT22;1640;48.504;9.224;2022-12-07T14:54:16;5.50;69.20
3256;DHT22;1640;48.504;9.224;2022-12-07T14:56:46;5.40;68.60
3256;DHT22;1640;48.504;9.224;2022-12-07T14:59:17;5.40;66.00
3256;DHT22;1640;48.504;9.224;2022-12-07T15:01:45;5.40;65.00
3256;DHT22;1640;48.504;9.224;2022-12-07T15:04:13;5.40;64.20
3256;DHT22;1640;48.504;9.224;2022-12-07T15:06:40;5.30;64.60
3256;DHT22;1640;48.504;9.224;2022-12-07T15:09:10;5.30;63.20
3256;DHT22;1640;48.504;9.224;2022-12-07T15:11:38;5.20;61.30
3256;DHT22;1640;48.504;9.224;2022-12-07T15:14:07;5.20;62.60
3256;DHT22;1640;48.504;9.224;2022-12-07T15:16:36;5.20;61.30
3256;DHT22;1640;48.504;9.224;2022-12-07T15:19:06;5.20;60.60
3256;DHT22;1640;48.504;9.224;2022-12-07T15:21:36;5.10;60.30
3256;DHT22;1640;48.504;9.224;2022-12-07T15:24:04;5.10;58.90
3256;DHT22;1640;48.504;9.224;2022-12-07T15:26:32;5.10;57.70
3256;DHT22;1640;48.504;9.224;2022-12-07T15:28:59;5.20;57.80
3256;DHT22;1640;48.504;9.224;2022-12-07T15:31:28;5.20;59.00
3256;DHT22;1640;48.504;9.224;2022-12-07T15:33:55;5.20;57.70
3256;DHT22;1640;48.504;9.224;2022-12-07T15:36:24;5.20;58.10
3256;DHT22;1640;48.504;9.224;2022-12-07T15:38:52;5.20;57.70
3256;DHT22;1640;48.504;9.224;2022-12-07T15:41:20;5.20;58.50
3256;DHT22;1640;48.504;9.224;2022-12-07T15:43:47;5.20;58.60
3256;DHT22;1640;48.504;9.224;2022-12-07T15:46:36;5.20;58.90
3256;DHT22;1640;48.504;9.224;2022-12-07T15:49:04;5.10;55.80
3256;DHT22;1640;48.504;9.224;2022-12-07T15:51:31;5.10;55.10
3256;DHT22;1640;48.504;9.224;2022-12-07T15:53:59;5.10;53.90
3256;DHT22;1640;48.504;9.224;2022-12-07T15:56:27;4.90;50.60
3256;DHT22;1640;48.504;9.224;2022-12-07T15:58:56;4.90;48.30
3256;DHT22;1640;48.504;9.224;2022-12-07T16:01:23;4.90;49.00
3256;DHT22;1640;48.504;9.224;2022-12-07T16:03:52;4.90;47.40
3256;DHT22;1640;48.504;9.224;2022-12-07T16:06:20;4.90;49.30
3256;DHT22;1640;48.504;9.224;2022-12-07T16:08:47;4.70;45.90
3256;DHT22;1640;48.504;9.224;2022-12-07T16:11:14;4.80;45.50
3256;DHT22;1640;48.504;9.224;2022-12-07T16:13:42;4.80;46.30
3256;DHT22;1640;48.504;9.224;2022-12-07T16:16:12;4.70;45.90
3256;DHT22;1640;48.504;9.224;2022-12-07T16:18:41;4.70;42.50
3256;DHT22;1640;48.504;9.224;2022-12-07T16:21:10;4.80;40.30
3256;DHT22;1640;48.504;9.224;2022-12-07T16:23:38;4.80;41.50
3256;DHT22;1640;48.504;9.224;2022-12-07T16:26:07;4.80;42.80
3256;DHT22;1640;48.504;9.224;2022-12-07T16:28:35;4.80;44.20
3256;DHT22;1640;48.504;9.224;2022-12-07T16:31:04;4.70;40.20
3256;DHT22;1640;48.504;9.224;2022-12-07T16:33:34;4.70;39.10
3256;DHT22;1640;48.504;9.224;2022-12-07T16:36:02;4.60;39.40
3256;DHT22;1640;48.504;9.224;2022-12-07T16:38:31;4.60;36.80
3256;DHT22;1640;48.504;9.224;2022-12-07T16:40:59;4.60;37.30
3256;DHT22;1640;48.504;9.224;2022-12-07T16:43:26;4.50;36.90
3256;DHT22;1640;48.504;9.224;2022-12-07T16:45:54;4.50;34.10
3256;DHT22;1640;48.504;9.224;2022-12-07T16:48:21;4.50;32.00
3256;DHT22;1640;48.504;9.224;2022-12-07T16:50:49;4.40;30.90
3256;DHT22;1640;48.504;9.224;2022-12-07T16:53:20;4.50;31.60
3256;DHT22;1640;48.504;9.224;2022-12-07T16:55:50;4.40;33.40
3256;DHT22;1640;48.504;9.224;2022-12-07T16:58:18;4.40;31.80
3256;DHT22;1640;48.504;9.224;2022-12-07T17:00:45;4.30;30.30
3256;DHT22;1640;48.504;9.224;2022-12-07T17:03:13;4.30;28.20